sensor_id;sensor_type;location;lat;lon;timestamp;P1;durP1;ratioP1;P2;durP2;ratioP2
12888;SDS011;56848;49.896;11.424;2022-10-16T04:02:12;4.70;;;1.93;;
12888;SDS011;56848;49.896;11.424;2022-10-16T04:04:38;3.93;;;1.33;;
12888;SDS011;56848;49.896;11.424;2022-10-16T04:07:04;1.63;;;1.47;;
12888;SDS011;56848;49.896;11.424;2022-10-16T04:09:29;2.20;;;1.60;;
12888;SDS011;56848;49.896;11.424;2022-10-16T04:11:55;1.60;;;1.50;;
12888;SDS011;56848;49.896;11.424;2022-10-16T04:14:21;2.60;;;1.70;;
12888;SDS011;56848;49.896;11.424;2022-10-16T04:16:46;3.60;;;1.30;;
12888;SDS011;56848;49.896;11.424;2022-10-16T04:19:12;1.77;;;1.57;;
12888;SDS011;56848;49.896;11.424;2022-10-16T04:21:38;2.20;;;1.60;;
12888;SDS011;56848;49.896;11.424;2022-10-16T04:24:04;4.93;;;1.90;;
12888;SDS011;56848;49.896;11.424;2022-10-16T04:26:29;2.17;;;2.03;;
12888;SDS011;56848;49.896;11.424;2022-10-16T04:28:55;8.23;;;2.20;;
12888;SDS011;56848;49.896;11.424;2022-10-16T04:31:20;6.73;;;1.73;;
12888;SDS011;56848;49.896;11.424;2022-10-16T04:33:46;4.37;;;1.80;;
12888;SDS011;56848;49.896;11.424;2022-10-16T04:36:12;2.80;;;1.87;;
12888;SDS011;56848;49.896;11.424;2022-10-16T04:38:38;3.23;;;1.90;;
12888;SDS011;56848;49.896;11.424;2022-10-16T04:41:05;2.30;;;1.30;;
12888;SDS011;56848;49.896;11.424;2022-10-16T04:43:31;4.00;;;1.70;;
12888;SDS011;56848;49.896;11.424;2022-10-16T04:45:57;1.77;;;1.67;;
12888;SDS011;56848;49.896;11.424;2022-10-16T04:48:22;3.63;;;1.73;;
12888;SDS011;56848;49.896;11.424;2022-10-16T04:50:48;7.90;;;2.80;;
12888;SDS011;56848;49.896;11.424;2022-10-16T04:53:14;5.27;;;1.80;;
12888;SDS011;56848;49.896;11.424;2022-10-16T04:55:40;1.37;;;1.33;;
12888;SDS011;56848;49.896;11.424;2022-10-16T04:58:06;2.80;;;1.67;;
12888;SDS011;56848;49.896;11.424;2022-10-16T05:00:32;2.13;;;2.03;;
12888;SDS011;56848;49.896;11.424;2022-10-16T05:02:58;7.37;;;1.30;;
12888;SDS011;56848;49.896;11.424;2022-10-16T05:05:25;1.83;;;1.37;;
12888;SDS011;56848;49.896;11.424;2022-10-16T05:07:51;1.70;;;1.60;;
12888;SDS011;56848;49.896;11.424;2022-10-16T05:10:17;1.27;;;1.27;;
12888;SDS011;56848;49.896;11.424;2022-10-16T05:12:42;2.67;;;1.47;;
12888;SDS011;56848;49.896;11.424;2022-10-16T05:15:08;2.70;;;1.80;;
12888;SDS011;56848;49.896;11.424;2022-10-16T05:17:34;3.93;;;1.70;;
12888;SDS011;56848;49.896;11.424;2022-10-16T05:20:00;10.70;;;2.20;;
12888;SDS011;56848;49.896;11.424;2022-10-16T05:22:25;4.83;;;2.40;;
12888;SDS011;56848;49.896;11.424;2022-10-16T05:24:51;1.70;;;1.60;;
12888;SDS011;56848;49.896;11.424;2022-10-16T05:27:16;1.97;;;1.80;;
12888;SDS011;56848;49.896;11.424;2022-10-16T05:29:45;1.73;;;1.63;;
12888;SDS011;56848;49.896;11.424;2022-10-16T05:32:12;1.50;;;1.40;;
12888;SDS011;56848;49.896;11.424;2022-10-16T05:34:38;2.07;;;1.87;;
12888;SDS011;56848;49.896;11.424;2022-10-16T05:37:04;2.90;;;1.80;;
12888;SDS011;56848;49.896;11.424;2022-10-16T05:39:30;3.77;;;1.67;;
12888;SDS011;56848;49.896;11.424;2022-10-16T05:41:55;1.93;;;1.83;;
12888;SDS011;56848;49.896;11.424;2022-10-16T05:44:21;1.80;;;1.70;;
12888;SDS011;56848;49.896;11.424;2022-10-16T05:46:47;2.13;;;2.03;;
12888;SDS011;56848;49.896;11.424;2022-10-16T05:49:12;2.63;;;1.50;;
12888;SDS011;56848;49.896;11.424;2022-10-16T05:51:38;1.80;;;1.70;;
12888;SDS011;56848;49.896;11.424;2022-10-16T05:54:03;2.00;;;1.80;;
12888;SDS011;56848;49.896;11.424;2022-10-16T05:56:29;2.33;;;1.57;;
12888;SDS011;56848;49.896;11.424;2022-10-16T05:58:54;1.67;;;1.57;;
12888;SDS011;56848;49.896;11.424;2022-10-16T06:01:20;4.23;;;1.53;;
12888;SDS011;56848;49.896;11.424;2022-10-16T06:03:48;1.80;;;1.70;;
12888;SDS011;56848;49.896;11.424;2022-10-16T06:06:16;2.60;;;1.87;;
12888;SDS011;56848;49.896;11.424;2022-10-16T06:08:47;1.60;;;1.50;;
12888;SDS011;56848;49.896;11.424;2022-10-16T06:11:14;1.73;;;1.60;;
12888;SDS011;56848;49.896;11.424;2022-10-16T06:13:45;8.10;;;1.73;;
12888;SDS011;56848;49.896;11.424;2022-10-16T06:16:14;2.23;;;1.70;;
12888;SDS011;56848;49.896;11.424;2022-10-16T06:18:39;2.27;;;1.60;;
12888;SDS011;56848;49.896;11.424;2022-10-16T06:21:13;1.47;;;1.40;;
12888;SDS011;56848;49.896;11.424;2022-10-16T06:23:41;3.77;;;1.57;;
12888;SDS011;56848;49.896;11.424;2022-10-16T06:26:08;4.30;;;1.60;;
12888;SDS011;56848;49.896;11.424;2022-10-16T06:28:38;1.37;;;1.37;;
12888;SDS011;56848;49.896;11.424;2022-10-16T06:31:04;7.87;;;1.73;;
12888;SDS011;56848;49.896;11.424;2022-10-16T06:33:31;3.53;;;1.60;;
12888;SDS011;56848;49.896;11.424;2022-10-16T06:36:01;8.37;;;2.13;;
12888;SDS011;56848;49.896;11.424;2022-10-16T06:38:31;4.90;;;1.33;;
12888;SDS011;56848;49.896;11.424;2022-10-16T06:40:57;1.90;;;1.73;;
12888;SDS011;56848;49.896;11.424;2022-10-16T06:43:23;2.43;;;1.50;;
12888;SDS011;56848;49.896;11.424;2022-10-16T06:45:53;2.13;;;1.83;;
12888;SDS011;56848;49.896;11.424;2022-10-16T06:48:19;2.20;;;1.50;;
12888;SDS011;56848;49.896;11.424;2022-10-16T06:53:28;6.33;;;2.30;;
12888;SDS011;56848;49.896;11.424;2022-10-16T06:55:56;2.60;;;1.80;;
12888;SDS011;56848;49.896;11.424;2022-10-16T06:58:22;2.13;;;1.80;;
12888;SDS011;56848;49.896;11.424;2022-10-16T07:00:48;1.97;;;1.77;;
12888;SDS011;56848;49.896;11.424;2022-10-16T07:03:19;1.70;;;1.60;;
12888;SDS011;56848;49.896;11.424;2022-10-16T07:05:45;2.30;;;1.60;;
12888;SDS011;56848;49.896;11.424;2022-10-16T07:08:10;1.63;;;1.53;;
12888;SDS011;56848;49.896;11.424;2022-10-16T07:10:36;3.43;;;1.60;;
12888;SDS011;56848;49.896;11.424;2022-10-16T07:13:01;3.20;;;1.80;;
12888;SDS011;56848;49.896;11.424;2022-10-16T07:15:27;1.93;;;1.30;;
12888;SDS011;56848;49.896;11.424;2022-10-16T07:17:53;1.73;;;1.50;;
12888;SDS011;56848;49.896;11.424;2022-10-16T07:20:19;5.20;;;2.20;;
12888;SDS011;56848;49.896;11.424;2022-10-16T07:22:45;1.50;;;1.40;;
12888;SDS011;56848;49.896;11.424;2022-10-16T07:25:11;2.10;;;1.70;;
12888;SDS011;56848;49.896;11.424;2022-10-16T07:27:37;1.50;;;1.43;;
12888;SDS011;56848;49.896;11.424;2022-10-16T07:30:03;3.63;;;1.97;;
12888;SDS011;56848;49.896;11.424;2022-10-16T07:32:29;2.63;;;1.80;;
12888;SDS011;56848;49.896;11.424;2022-10-16T07:34:54;6.93;;;1.63;;
12888;SDS011;56848;49.896;11.424;2022-10-16T07:37:20;11.43;;;1.83;;
12888;SDS011;56848;49.896;11.424;2022-10-16T07:39:46;2.00;;;1.50;;
12888;SDS011;56848;49.896;11.424;2022-10-16T07:42:12;3.03;;;1.63;;
12888;SDS011;56848;49.896;11.424;2022-10-16T07:44:37;2.93;;;1.70;;
12888;SDS011;56848;49.896;11.424;2022-10-16T07:47:03;4.77;;;1.60;;
12888;SDS011;56848;49.896;11.424;2022-10-16T07:49:28;1.60;;;1.47;;
12888;SDS011;56848;49.896;11.424;2022-10-16T07:51:54;2.50;;;1.67;;
12888;SDS011;56848;49.896;11.424;2022-10-16T07:54:19;2.27;;;1.80;;
12888;SDS011;56848;49.896;11.424;2022-10-16T07:56:45;2.43;;;1.77;;
12888;SDS011;56848;49.896;11.424;2022-10-16T07:59:11;5.50;;;2.20;;
12888;SDS011;56848;49.896;11.424;2022-10-16T08:01:36;1.50;;;1.43;;
12888;SDS011;56848;49.896;11.424;2022-10-16T08:04:02;2.10;;;1.30;;
12888;SDS011;56848;49.896;11.424;2022-10-16T08:06:27;2.67;;;1.80;;
12888;SDS011;56848;49.896;11.424;2022-10-16T08:08:53;12.17;;;1.53;;
12888;SDS011;56848;49.896;11.424;2022-10-16T08:11:20;2.40;;;1.50;;
12888;SDS011;56848;49.896;11.424;2022-10-16T08:13:46;3.50;;;1.40;;
12888;SDS011;56848;49.896;11.424;2022-10-16T08:16:11;4.30;;;2.13;;
12888;SDS011;56848;49.896;11.424;2022-10-16T08:18:37;2.80;;;1.83;;
12888;SDS011;56848;49.896;11.424;2022-10-16T08:21:05;4.10;;;1.87;;
12888;SDS011;56848;49.896;11.424;2022-10-16T08:23:32;1.60;;;1.60;;
12888;SDS011;56848;49.896;11.424;2022-10-16T08:26:03;13.73;;;1.90;;
12888;SDS011;56848;49.896;11.424;2022-10-16T08:28:31;4.77;;;1.97;;
12888;SDS011;56848;49.896;11.424;2022-10-16T08:31:04;2.80;;;1.60;;
12888;SDS011;56848;49.896;11.424;2022-10-16T08:33:34;2.00;;;1.63;;
12888;SDS011;56848;49.896;11.424;2022-10-16T08:36:00;1.60;;;1.50;;
12888;SDS011;56848;49.896;11.424;2022-10-16T08:38:26;2.00;;;1.73;;
12888;SDS011;56848;49.896;11.424;2022-10-16T08:40:51;5.37;;;1.47;;
12888;SDS011;56848;49.896;11.424;2022-10-16T08:44:08;8.23;;;1.83;;
12888;SDS011;56848;49.896;11.424;2022-10-16T08:49:37;4.50;;;1.50;;
12888;SDS011;56848;49.896;11.424;2022-10-16T08:52:10;4.93;;;1.83;;
12888;SDS011;56848;49.896;11.424;2022-10-16T08:54:37;4.13;;;1.70;;
12888;SDS011;56848;49.896;11.424;2022-10-16T08:57:16;11.43;;;1.90;;
12888;SDS011;56848;49.896;11.424;2022-10-16T08:59:45;5.17;;;1.87;;
12888;SDS011;56848;49.896;11.424;2022-10-16T09:13:16;2.07;;;1.87;;
12888;SDS011;56848;49.896;11.424;2022-10-16T09:23:17;4.50;;;1.70;;
12888;SDS011;56848;49.896;11.424;2022-10-16T09:25:44;3.43;;;1.97;;
12888;SDS011;56848;49.896;11.424;2022-10-16T09:28:12;7.03;;;2.20;;
12888;SDS011;56848;49.896;11.424;2022-10-16T09:30:38;11.07;;;1.97;;
12888;SDS011;56848;49.896;11.424;2022-10-16T09:33:04;5.80;;;2.47;;
12888;SDS011;56848;49.896;11.424;2022-10-16T09:35:32;1.90;;;1.80;;
12888;SDS011;56848;49.896;11.424;2022-10-16T09:37:59;4.23;;;1.60;;
12888;SDS011;56848;49.896;11.424;2022-10-16T09:42:52;2.60;;;1.67;;
12888;SDS011;56848;49.896;11.424;2022-10-16T09:45:22;2.77;;;2.03;;
12888;SDS011;56848;49.896;11.424;2022-10-16T09:47:48;1.90;;;1.60;;
12888;SDS011;56848;49.896;11.424;2022-10-16T09:50:25;8.40;;;2.10;;
12888;SDS011;56848;49.896;11.424;2022-10-16T09:53:02;7.20;;;3.13;;
12888;SDS011;56848;49.896;11.424;2022-10-16T09:55:29;8.03;;;2.87;;
12888;SDS011;56848;49.896;11.424;2022-10-16T09:57:55;9.70;;;2.37;;
12888;SDS011;56848;49.896;11.424;2022-10-16T10:00:22;9.70;;;3.93;;
12888;SDS011;56848;49.896;11.424;2022-10-16T10:02:48;11.30;;;2.97;;
12888;SDS011;56848;49.896;11.424;2022-10-16T10:05:21;1.40;;;1.40;;
12888;SDS011;56848;49.896;11.424;2022-10-16T10:07:53;2.10;;;1.90;;
12888;SDS011;56848;49.896;11.424;2022-10-16T10:10:27;3.13;;;1.90;;
12888;SDS011;56848;49.896;11.424;2022-10-16T10:12:54;12.20;;;2.60;;
12888;SDS011;56848;49.896;11.424;2022-10-16T10:15:20;3.80;;;1.80;;
12888;SDS011;56848;49.896;11.424;2022-10-16T10:17:49;2.80;;;1.73;;
12888;SDS011;56848;49.896;11.424;2022-10-16T10:22:48;3.30;;;1.70;;
12888;SDS011;56848;49.896;11.424;2022-10-16T10:30:34;2.10;;;1.30;;
12888;SDS011;56848;49.896;11.424;2022-10-16T10:35:51;1.97;;;1.60;;
12888;SDS011;56848;49.896;11.424;2022-10-16T10:41:16;1.67;;;1.57;;
12888;SDS011;56848;49.896;11.424;2022-10-16T10:43:55;4.50;;;1.83;;
12888;SDS011;56848;49.896;11.424;2022-10-16T10:46:29;1.47;;;1.37;;
12888;SDS011;56848;49.896;11.424;2022-10-16T10:49:09;1.43;;;1.33;;
12888;SDS011;56848;49.896;11.424;2022-10-16T10:54:22;3.83;;;1.73;;
12888;SDS011;56848;49.896;11.424;2022-10-16T10:57:00;3.30;;;1.50;;
12888;SDS011;56848;49.896;11.424;2022-10-16T11:04:42;2.20;;;1.13;;
12888;SDS011;56848;49.896;11.424;2022-10-16T11:07:19;3.43;;;1.57;;
12888;SDS011;56848;49.896;11.424;2022-10-16T11:09:47;2.50;;;1.70;;
12888;SDS011;56848;49.896;11.424;2022-10-16T11:20:50;5.03;;;1.67;;
12888;SDS011;56848;49.896;11.424;2022-10-16T11:25:55;1.43;;;1.40;;
12888;SDS011;56848;49.896;11.424;2022-10-16T11:28:29;1.60;;;1.50;;
12888;SDS011;56848;49.896;11.424;2022-10-16T11:33:57;2.53;;;1.80;;
12888;SDS011;56848;49.896;11.424;2022-10-16T11:36:31;1.70;;;1.60;;
12888;SDS011;56848;49.896;11.424;2022-10-16T11:41:39;3.10;;;1.83;;
12888;SDS011;56848;49.896;11.424;2022-10-16T11:46:40;1.57;;;1.47;;
12888;SDS011;56848;49.896;11.424;2022-10-16T11:49:11;2.10;;;1.27;;
12888;SDS011;56848;49.896;11.424;2022-10-16T11:51:40;8.00;;;1.90;;
12888;SDS011;56848;49.896;11.424;2022-10-16T11:54:20;7.97;;;1.67;;
12888;SDS011;56848;49.896;11.424;2022-10-16T11:56:48;2.53;;;1.63;;
12888;SDS011;56848;49.896;11.424;2022-10-16T11:59:21;2.40;;;1.30;;
12888;SDS011;56848;49.896;11.424;2022-10-16T12:04:41;2.20;;;1.33;;
12888;SDS011;56848;49.896;11.424;2022-10-16T12:07:11;2.63;;;1.37;;
12888;SDS011;56848;49.896;11.424;2022-10-16T12:09:40;1.60;;;1.50;;
12888;SDS011;56848;49.896;11.424;2022-10-16T12:12:23;1.50;;;1.40;;
12888;SDS011;56848;49.896;11.424;2022-10-16T12:14:59;2.20;;;1.50;;
12888;SDS011;56848;49.896;11.424;2022-10-16T12:17:38;1.70;;;1.60;;
12888;SDS011;56848;49.896;11.424;2022-10-16T12:22:37;6.03;;;1.50;;
12888;SDS011;56848;49.896;11.424;2022-10-16T12:25:19;1.70;;;1.50;;
12888;SDS011;56848;49.896;11.424;2022-10-16T12:27:52;4.57;;;1.43;;
12888;SDS011;56848;49.896;11.424;2022-10-16T12:30:20;3.80;;;1.40;;
12888;SDS011;56848;49.896;11.424;2022-10-16T12:32:55;1.87;;;1.70;;
12888;SDS011;56848;49.896;11.424;2022-10-16T12:35:22;8.00;;;2.03;;
12888;SDS011;56848;49.896;11.424;2022-10-16T12:37:49;5.10;;;1.80;;
12888;SDS011;56848;49.896;11.424;2022-10-16T12:42:47;9.43;;;2.07;;
12888;SDS011;56848;49.896;11.424;2022-10-16T12:45:30;5.07;;;1.73;;
12888;SDS011;56848;49.896;11.424;2022-10-16T12:47:56;4.60;;;2.20;;
12888;SDS011;56848;49.896;11.424;2022-10-16T12:50:36;7.40;;;1.70;;
12888;SDS011;56848;49.896;11.424;2022-10-16T12:53:03;1.93;;;1.77;;
12888;SDS011;56848;49.896;11.424;2022-10-16T12:55:34;2.00;;;1.30;;
12888;SDS011;56848;49.896;11.424;2022-10-16T12:58:05;2.60;;;1.83;;
12888;SDS011;56848;49.896;11.424;2022-10-16T13:00:45;3.67;;;1.80;;
12888;SDS011;56848;49.896;11.424;2022-10-16T13:11:19;2.97;;;1.50;;
12888;SDS011;56848;49.896;11.424;2022-10-16T13:24:00;4.00;;;1.67;;
12888;SDS011;56848;49.896;11.424;2022-10-16T13:29:12;4.93;;;1.77;;
12888;SDS011;56848;49.896;11.424;2022-10-16T13:31:39;1.87;;;1.77;;
12888;SDS011;56848;49.896;11.424;2022-10-16T13:34:05;1.73;;;1.63;;
12888;SDS011;56848;49.896;11.424;2022-10-16T13:36:42;1.80;;;1.70;;
12888;SDS011;56848;49.896;11.424;2022-10-16T13:39:15;2.13;;;2.00;;
12888;SDS011;56848;49.896;11.424;2022-10-16T13:41:42;5.53;;;2.10;;
12888;SDS011;56848;49.896;11.424;2022-10-16T13:44:15;3.43;;;2.10;;
12888;SDS011;56848;49.896;11.424;2022-10-16T13:46:43;7.27;;;3.07;;
12888;SDS011;56848;49.896;11.424;2022-10-16T13:49:16;5.73;;;1.87;;
12888;SDS011;56848;49.896;11.424;2022-10-16T13:51:54;1.90;;;1.80;;
12888;SDS011;56848;49.896;11.424;2022-10-16T13:54:20;4.77;;;1.70;;
12888;SDS011;56848;49.896;11.424;2022-10-16T13:56:46;6.00;;;2.10;;
12888;SDS011;56848;49.896;11.424;2022-10-16T13:59:25;2.30;;;1.73;;
12888;SDS011;56848;49.896;11.424;2022-10-16T14:01:52;2.57;;;2.37;;
12888;SDS011;56848;49.896;11.424;2022-10-16T14:04:19;4.50;;;1.90;;
12888;SDS011;56848;49.896;11.424;2022-10-16T14:06:46;1.90;;;1.80;;
12888;SDS011;56848;49.896;11.424;2022-10-16T14:11:59;2.00;;;1.90;;
12888;SDS011;56848;49.896;11.424;2022-10-16T14:14:32;2.67;;;2.20;;
12888;SDS011;56848;49.896;11.424;2022-10-16T14:17:00;3.10;;;1.70;;
12888;SDS011;56848;49.896;11.424;2022-10-16T14:19:26;2.23;;;1.90;;
12888;SDS011;56848;49.896;11.424;2022-10-16T14:21:53;2.07;;;1.87;;
12888;SDS011;56848;49.896;11.424;2022-10-16T14:24:22;3.10;;;1.70;;
12888;SDS011;56848;49.896;11.424;2022-10-16T14:26:50;5.13;;;1.80;;
12888;SDS011;56848;49.896;11.424;2022-10-16T14:29:18;3.23;;;1.80;;
12888;SDS011;56848;49.896;11.424;2022-10-16T14:31:54;2.10;;;1.70;;
12888;SDS011;56848;49.896;11.424;2022-10-16T14:34:27;3.10;;;1.77;;
12888;SDS011;56848;49.896;11.424;2022-10-16T14:36:55;7.43;;;1.70;;
12888;SDS011;56848;49.896;11.424;2022-10-16T14:39:21;3.23;;;1.97;;
12888;SDS011;56848;49.896;11.424;2022-10-16T14:41:49;3.10;;;2.30;;
12888;SDS011;56848;49.896;11.424;2022-10-16T14:44:15;2.10;;;1.60;;
12888;SDS011;56848;49.896;11.424;2022-10-16T14:46:42;3.33;;;1.93;;
12888;SDS011;56848;49.896;11.424;2022-10-16T14:51:35;3.17;;;2.10;;
12888;SDS011;56848;49.896;11.424;2022-10-16T14:54:01;2.80;;;1.50;;
12888;SDS011;56848;49.896;11.424;2022-10-16T14:56:34;3.40;;;1.80;;
12888;SDS011;56848;49.896;11.424;2022-10-16T14:59:00;8.70;;;1.70;;
12888;SDS011;56848;49.896;11.424;2022-10-16T15:01:26;9.17;;;1.90;;
12888;SDS011;56848;49.896;11.424;2022-10-16T15:03:52;2.20;;;1.93;;
12888;SDS011;56848;49.896;11.424;2022-10-16T15:06:20;1.70;;;1.60;;
12888;SDS011;56848;49.896;11.424;2022-10-16T15:08:46;2.70;;;1.30;;
12888;SDS011;56848;49.896;11.424;2022-10-16T15:11:14;1.93;;;1.70;;
12888;SDS011;56848;49.896;11.424;2022-10-16T15:13:40;1.73;;;1.60;;
12888;SDS011;56848;49.896;11.424;2022-10-16T15:16:08;3.90;;;1.77;;
12888;SDS011;56848;49.896;11.424;2022-10-16T15:18:35;4.50;;;1.70;;
12888;SDS011;56848;49.896;11.424;2022-10-16T15:21:01;6.13;;;2.17;;
12888;SDS011;56848;49.896;11.424;2022-10-16T15:23:27;2.60;;;1.80;;
12888;SDS011;56848;49.896;11.424;2022-10-16T15:25:54;3.50;;;1.80;;
12888;SDS011;56848;49.896;11.424;2022-10-16T15:28:21;5.27;;;2.30;;
12888;SDS011;56848;49.896;11.424;2022-10-16T15:30:49;6.63;;;2.47;;
12888;SDS011;56848;49.896;11.424;2022-10-16T15:33:16;11.73;;;3.20;;
12888;SDS011;56848;49.896;11.424;2022-10-16T15:35:46;8.50;;;2.37;;
12888;SDS011;56848;49.896;11.424;2022-10-16T15:38:13;8.70;;;2.03;;
12888;SDS011;56848;49.896;11.424;2022-10-16T15:40:39;5.10;;;1.77;;
12888;SDS011;56848;49.896;11.424;2022-10-16T15:43:05;2.10;;;1.90;;
12888;SDS011;56848;49.896;11.424;2022-10-16T15:45:30;8.43;;;2.20;;
12888;SDS011;56848;49.896;11.424;2022-10-16T15:47:56;2.70;;;2.10;;
12888;SDS011;56848;49.896;11.424;2022-10-16T15:50:22;4.33;;;2.30;;
12888;SDS011;56848;49.896;11.424;2022-10-16T15:52:47;4.93;;;2.70;;
12888;SDS011;56848;49.896;11.424;2022-10-16T15:55:14;3.83;;;3.20;;
12888;SDS011;56848;49.896;11.424;2022-10-16T15:57:40;6.83;;;3.03;;
12888;SDS011;56848;49.896;11.424;2022-10-16T16:00:08;11.50;;;2.80;;
12888;SDS011;56848;49.896;11.424;2022-10-16T16:02:39;4.60;;;2.03;;
12888;SDS011;56848;49.896;11.424;2022-10-16T16:05:06;8.43;;;2.20;;
12888;SDS011;56848;49.896;11.424;2022-10-16T16:07:36;14.53;;;3.10;;
12888;SDS011;56848;49.896;11.424;2022-10-16T16:10:03;4.20;;;2.77;;
12888;SDS011;56848;49.896;11.424;2022-10-16T16:12:31;11.20;;;2.33;;
12888;SDS011;56848;49.896;11.424;2022-10-16T16:14:57;5.13;;;1.97;;
12888;SDS011;56848;49.896;11.424;2022-10-16T16:17:23;4.13;;;1.83;;
12888;SDS011;56848;49.896;11.424;2022-10-16T16:19:49;1.83;;;1.73;;
12888;SDS011;56848;49.896;11.424;2022-10-16T16:22:15;6.50;;;2.20;;
12888;SDS011;56848;49.896;11.424;2022-10-16T16:24:41;2.17;;;2.00;;
12888;SDS011;56848;49.896;11.424;2022-10-16T16:27:06;3.30;;;2.00;;
12888;SDS011;56848;49.896;11.424;2022-10-16T16:29:32;7.63;;;2.40;;
12888;SDS011;56848;49.896;11.424;2022-10-16T16:31:58;7.53;;;2.50;;
12888;SDS011;56848;49.896;11.424;2022-10-16T16:34:25;8.30;;;2.70;;
12888;SDS011;56848;49.896;11.424;2022-10-16T16:36:54;3.00;;;2.37;;
12888;SDS011;56848;49.896;11.424;2022-10-16T16:39:21;2.33;;;2.20;;
12888;SDS011;56848;49.896;11.424;2022-10-16T16:41:47;7.93;;;2.10;;
12888;SDS011;56848;49.896;11.424;2022-10-16T16:44:13;7.93;;;3.17;;
12888;SDS011;56848;49.896;11.424;2022-10-16T16:46:40;7.00;;;4.60;;
12888;SDS011;56848;49.896;11.424;2022-10-16T16:49:09;2.50;;;2.30;;
12888;SDS011;56848;49.896;11.424;2022-10-16T16:51:36;5.73;;;2.47;;
12888;SDS011;56848;49.896;11.424;2022-10-16T16:54:03;7.60;;;2.73;;
12888;SDS011;56848;49.896;11.424;2022-10-16T16:56:28;4.50;;;2.30;;
12888;SDS011;56848;49.896;11.424;2022-10-16T16:58:54;3.60;;;2.30;;
12888;SDS011;56848;49.896;11.424;2022-10-16T17:01:22;2.50;;;2.30;;
12888;SDS011;56848;49.896;11.424;2022-10-16T17:03:50;6.87;;;2.70;;
12888;SDS011;56848;49.896;11.424;2022-10-16T17:06:18;4.43;;;3.07;;
12888;SDS011;56848;49.896;11.424;2022-10-16T17:08:50;5.23;;;2.83;;
12888;SDS011;56848;49.896;11.424;2022-10-16T17:11:20;3.30;;;2.50;;
12888;SDS011;56848;49.896;11.424;2022-10-16T17:13:48;6.20;;;3.20;;
12888;SDS011;56848;49.896;11.424;2022-10-16T17:16:15;3.93;;;3.10;;
12888;SDS011;56848;49.896;11.424;2022-10-16T17:18:40;6.23;;;3.13;;
12888;SDS011;56848;49.896;11.424;2022-10-16T17:21:07;7.53;;;3.50;;
12888;SDS011;56848;49.896;11.424;2022-10-16T17:23:34;4.77;;;2.63;;
12888;SDS011;56848;49.896;11.424;2022-10-16T17:28:37;9.43;;;2.97;;
12888;SDS011;56848;49.896;11.424;2022-10-16T17:31:07;13.37;;;4.10;;
12888;SDS011;56848;49.896;11.424;2022-10-16T17:33:40;5.60;;;3.23;;
12888;SDS011;56848;49.896;11.424;2022-10-16T17:36:06;8.30;;;3.27;;
12888;SDS011;56848;49.896;11.424;2022-10-16T17:38:32;8.80;;;2.80;;
12888;SDS011;56848;49.896;11.424;2022-10-16T17:40:58;6.03;;;2.97;;
12888;SDS011;56848;49.896;11.424;2022-10-16T17:43:33;6.00;;;2.90;;
12888;SDS011;56848;49.896;11.424;2022-10-16T17:46:01;9.03;;;3.13;;
12888;SDS011;56848;49.896;11.424;2022-10-16T17:48:27;12.13;;;3.40;;
12888;SDS011;56848;49.896;11.424;2022-10-16T17:50:52;3.90;;;3.60;;
12888;SDS011;56848;49.896;11.424;2022-10-16T17:53:18;5.13;;;3.83;;
12888;SDS011;56848;49.896;11.424;2022-10-16T17:55:43;4.87;;;4.10;;
12888;SDS011;56848;49.896;11.424;2022-10-16T17:58:09;5.13;;;3.33;;
12888;SDS011;56848;49.896;11.424;2022-10-16T18:00:34;4.30;;;3.53;;
12888;SDS011;56848;49.896;11.424;2022-10-16T18:03:00;9.43;;;4.13;;
12888;SDS011;56848;49.896;11.424;2022-10-16T18:05:25;8.73;;;4.30;;
12888;SDS011;56848;49.896;11.424;2022-10-16T18:07:51;8.00;;;3.40;;
12888;SDS011;56848;49.896;11.424;2022-10-16T18:10:17;4.63;;;3.40;;
12888;SDS011;56848;49.896;11.424;2022-10-16T18:12:43;15.03;;;4.03;;
12888;SDS011;56848;49.896;11.424;2022-10-16T18:15:08;9.83;;;5.47;;
12888;SDS011;56848;49.896;11.424;2022-10-16T18:17:34;10.10;;;5.77;;
12888;SDS011;56848;49.896;11.424;2022-10-16T18:20:04;9.60;;;5.40;;
12888;SDS011;56848;49.896;11.424;2022-10-16T18:22:34;5.43;;;4.00;;
12888;SDS011;56848;49.896;11.424;2022-10-16T18:25:01;12.43;;;3.20;;
12888;SDS011;56848;49.896;11.424;2022-10-16T18:27:29;4.80;;;3.17;;
12888;SDS011;56848;49.896;11.424;2022-10-16T18:29:55;5.70;;;3.43;;
12888;SDS011;56848;49.896;11.424;2022-10-16T18:32:22;5.73;;;2.97;;
12888;SDS011;56848;49.896;11.424;2022-10-16T18:34:48;10.80;;;2.60;;
12888;SDS011;56848;49.896;11.424;2022-10-16T18:37:13;10.23;;;3.20;;
12888;SDS011;56848;49.896;11.424;2022-10-16T18:39:39;4.07;;;3.20;;
12888;SDS011;56848;49.896;11.424;2022-10-16T18:42:05;9.10;;;3.90;;
12888;SDS011;56848;49.896;11.424;2022-10-16T18:44:31;6.53;;;3.03;;
12888;SDS011;56848;49.896;11.424;2022-10-16T18:46:57;14.03;;;3.03;;
12888;SDS011;56848;49.896;11.424;2022-10-16T18:49:23;7.17;;;3.50;;
12888;SDS011;56848;49.896;11.424;2022-10-16T18:51:50;8.93;;;3.33;;
12888;SDS011;56848;49.896;11.424;2022-10-16T18:54:21;10.23;;;3.60;;
12888;SDS011;56848;49.896;11.424;2022-10-16T18:56:49;4.20;;;3.37;;
12888;SDS011;56848;49.896;11.424;2022-10-16T18:59:15;7.43;;;3.60;;
12888;SDS011;56848;49.896;11.424;2022-10-16T19:01:41;13.17;;;3.40;;
12888;SDS011;56848;49.896;11.424;2022-10-16T19:04:09;13.30;;;3.20;;
12888;SDS011;56848;49.896;11.424;2022-10-16T19:06:36;4.07;;;2.90;;
12888;SDS011;56848;49.896;11.424;2022-10-16T19:09:05;16.17;;;3.50;;
12888;SDS011;56848;49.896;11.424;2022-10-16T19:11:31;8.20;;;3.07;;
12888;SDS011;56848;49.896;11.424;2022-10-16T19:13:56;4.37;;;3.63;;
12888;SDS011;56848;49.896;11.424;2022-10-16T19:16:26;8.87;;;3.53;;
12888;SDS011;56848;49.896;11.424;2022-10-16T19:18:54;14.73;;;3.70;;
12888;SDS011;56848;49.896;11.424;2022-10-16T19:21:21;17.83;;;3.20;;
12888;SDS011;56848;49.896;11.424;2022-10-16T19:23:52;6.43;;;3.40;;
12888;SDS011;56848;49.896;11.424;2022-10-16T19:26:22;8.20;;;3.53;;
12888;SDS011;56848;49.896;11.424;2022-10-16T19:28:49;8.30;;;4.00;;
12888;SDS011;56848;49.896;11.424;2022-10-16T19:31:18;13.33;;;3.60;;
12888;SDS011;56848;49.896;11.424;2022-10-16T19:33:45;6.50;;;3.70;;
12888;SDS011;56848;49.896;11.424;2022-10-16T19:36:12;4.90;;;3.40;;
12888;SDS011;56848;49.896;11.424;2022-10-16T19:38:41;6.50;;;3.43;;
12888;SDS011;56848;49.896;11.424;2022-10-16T19:41:12;17.77;;;4.20;;
12888;SDS011;56848;49.896;11.424;2022-10-16T19:43:42;55.07;;;5.77;;
12888;SDS011;56848;49.896;11.424;2022-10-16T19:46:13;5.97;;;3.70;;
12888;SDS011;56848;49.896;11.424;2022-10-16T19:48:40;10.90;;;3.20;;
12888;SDS011;56848;49.896;11.424;2022-10-16T19:51:06;5.83;;;3.30;;
12888;SDS011;56848;49.896;11.424;2022-10-16T19:53:34;6.03;;;3.77;;
12888;SDS011;56848;49.896;11.424;2022-10-16T19:56:00;8.00;;;4.13;;
12888;SDS011;56848;49.896;11.424;2022-10-16T19:58:26;25.50;;;6.30;;
12888;SDS011;56848;49.896;11.424;2022-10-16T20:00:52;7.47;;;4.27;;
12888;SDS011;56848;49.896;11.424;2022-10-16T20:03:18;10.20;;;4.27;;
12888;SDS011;56848;49.896;11.424;2022-10-16T20:05:53;15.40;;;3.77;;
12888;SDS011;56848;49.896;11.424;2022-10-16T20:08:20;8.67;;;4.00;;
12888;SDS011;56848;49.896;11.424;2022-10-16T20:10:47;8.37;;;4.07;;
12888;SDS011;56848;49.896;11.424;2022-10-16T20:13:17;19.33;;;3.17;;
12888;SDS011;56848;49.896;11.424;2022-10-16T20:15:44;8.07;;;3.90;;
12888;SDS011;56848;49.896;11.424;2022-10-16T20:18:10;6.83;;;3.43;;
